sensor_id;sensor_type;location;lat;lon;timestamp;P1;durP1;ratioP1;P2;durP2;ratioP2
76989;SDS011;65924;47.250;11.332;2023-07-24T00:00:26;9.00;;;4.50;;
76989;SDS011;65924;47.250;11.332;2023-07-24T00:10:26;24.00;;;5.60;;
76989;SDS011;65924;47.250;11.332;2023-07-24T00:20:27;10.30;;;6.00;;
76989;SDS011;65924;47.250;11.332;2023-07-24T00:30:28;10.60;;;6.20;;
76989;SDS011;65924;47.250;11.332;2023-07-24T00:40:28;9.90;;;5.40;;
76989;SDS011;65924;47.250;11.332;2023-07-24T00:50:29;10.10;;;5.30;;
76989;SDS011;65924;47.250;11.332;2023-07-24T01:00:30;8.70;;;3.80;;
76989;SDS011;65924;47.250;11.332;2023-07-24T01:10:32;10.90;;;5.50;;
76989;SDS011;65924;47.250;11.332;2023-07-24T01:20:32;6.90;;;2.90;;
76989;SDS011;65924;47.250;11.332;2023-07-24T01:30:36;8.10;;;4.00;;
76989;SDS011;65924;47.250;11.332;2023-07-24T01:40:36;11.30;;;5.10;;
76989;SDS011;65924;47.250;11.332;2023-07-24T01:50:39;10.10;;;4.80;;
76989;SDS011;65924;47.250;11.332;2023-07-24T02:00:40;8.70;;;4.60;;
76989;SDS011;65924;47.250;11.332;2023-07-24T02:10:40;10.00;;;5.00;;
76989;SDS011;65924;47.250;11.332;2023-07-24T02:20:41;10.90;;;6.00;;
76989;SDS011;65924;47.250;11.332;2023-07-24T02:30:41;7.50;;;3.90;;
76989;SDS011;65924;47.250;11.332;2023-07-24T02:40:43;15.20;;;5.80;;
76989;SDS011;65924;47.250;11.332;2023-07-24T02:50:47;14.20;;;6.00;;
76989;SDS011;65924;47.250;11.332;2023-07-24T03:00:48;10.80;;;6.70;;
76989;SDS011;65924;47.250;11.332;2023-07-24T03:10:48;16.80;;;7.40;;
76989;SDS011;65924;47.250;11.332;2023-07-24T03:20:49;7.70;;;4.10;;
76989;SDS011;65924;47.250;11.332;2023-07-24T03:30:50;11.20;;;5.90;;
76989;SDS011;65924;47.250;11.332;2023-07-24T03:40:51;11.60;;;6.00;;
76989;SDS011;65924;47.250;11.332;2023-07-24T03:50:57;10.80;;;5.70;;
76989;SDS011;65924;47.250;11.332;2023-07-24T04:01:02;11.00;;;6.00;;
76989;SDS011;65924;47.250;11.332;2023-07-24T04:11:03;9.60;;;5.90;;
76989;SDS011;65924;47.250;11.332;2023-07-24T04:21:05;10.80;;;6.50;;
76989;SDS011;65924;47.250;11.332;2023-07-24T04:31:06;10.90;;;6.10;;
76989;SDS011;65924;47.250;11.332;2023-07-24T04:41:06;10.90;;;6.00;;
76989;SDS011;65924;47.250;11.332;2023-07-24T04:51:07;9.00;;;5.80;;
76989;SDS011;65924;47.250;11.332;2023-07-24T05:01:08;10.60;;;6.50;;
76989;SDS011;65924;47.250;11.332;2023-07-24T05:11:09;12.60;;;7.00;;
76989;SDS011;65924;47.250;11.332;2023-07-24T05:21:10;7.80;;;3.70;;
76989;SDS011;65924;47.250;11.332;2023-07-24T05:31:11;7.10;;;3.50;;
76989;SDS011;65924;47.250;11.332;2023-07-24T05:41:11;10.90;;;6.20;;
76989;SDS011;65924;47.250;11.332;2023-07-24T05:51:12;7.60;;;3.60;;
76989;SDS011;65924;47.250;11.332;2023-07-24T06:01:13;11.00;;;6.60;;
76989;SDS011;65924;47.250;11.332;2023-07-24T06:11:14;9.50;;;5.30;;
76989;SDS011;65924;47.250;11.332;2023-07-24T06:21:14;8.40;;;4.80;;
76989;SDS011;65924;47.250;11.332;2023-07-24T06:31:15;13.60;;;7.70;;
76989;SDS011;65924;47.250;11.332;2023-07-24T06:41:19;10.70;;;6.00;;
76989;SDS011;65924;47.250;11.332;2023-07-24T06:51:21;6.40;;;3.40;;
76989;SDS011;65924;47.250;11.332;2023-07-24T07:01:22;10.20;;;5.30;;
76989;SDS011;65924;47.250;11.332;2023-07-24T07:11:22;9.20;;;5.90;;
76989;SDS011;65924;47.250;11.332;2023-07-24T07:21:23;8.40;;;4.10;;
76989;SDS011;65924;47.250;11.332;2023-07-24T07:31:24;15.30;;;8.30;;
76989;SDS011;65924;47.250;11.332;2023-07-24T07:41:24;11.90;;;6.60;;
76989;SDS011;65924;47.250;11.332;2023-07-24T07:51:25;13.60;;;8.80;;
76989;SDS011;65924;47.250;11.332;2023-07-24T08:01:26;12.90;;;8.10;;
76989;SDS011;65924;47.250;11.332;2023-07-24T08:11:27;7.90;;;4.50;;
76989;SDS011;65924;47.250;11.332;2023-07-24T08:21:27;15.70;;;8.70;;
76989;SDS011;65924;47.250;11.332;2023-07-24T08:31:28;15.40;;;10.00;;
76989;SDS011;65924;47.250;11.332;2023-07-24T08:41:29;11.10;;;6.80;;
76989;SDS011;65924;47.250;11.332;2023-07-24T08:51:33;15.90;;;10.50;;
76989;SDS011;65924;47.250;11.332;2023-07-24T09:01:33;14.70;;;7.30;;
76989;SDS011;65924;47.250;11.332;2023-07-24T09:11:34;13.50;;;7.50;;
76989;SDS011;65924;47.250;11.332;2023-07-24T09:21:46;9.90;;;6.30;;
76989;SDS011;65924;47.250;11.332;2023-07-24T09:31:47;8.50;;;5.00;;
76989;SDS011;65924;47.250;11.332;2023-07-24T09:41:49;6.80;;;3.90;;
76989;SDS011;65924;47.250;11.332;2023-07-24T09:51:50;10.00;;;5.60;;
76989;SDS011;65924;47.250;11.332;2023-07-24T10:01:56;7.70;;;5.10;;
76989;SDS011;65924;47.250;11.332;2023-07-24T10:11:57;8.90;;;5.40;;
76989;SDS011;65924;47.250;11.332;2023-07-24T10:21:58;9.50;;;5.20;;
76989;SDS011;65924;47.250;11.332;2023-07-24T10:31:59;13.10;;;8.70;;
76989;SDS011;65924;47.250;11.332;2023-07-24T10:42:04;13.70;;;8.10;;
76989;SDS011;65924;47.250;11.332;2023-07-24T10:52:06;10.30;;;6.40;;
76989;SDS011;65924;47.250;11.332;2023-07-24T11:02:08;9.90;;;6.50;;
76989;SDS011;65924;47.250;11.332;2023-07-24T11:12:11;12.90;;;7.50;;
76989;SDS011;65924;47.250;11.332;2023-07-24T11:22:15;11.40;;;7.00;;
76989;SDS011;65924;47.250;11.332;2023-07-24T11:32:22;9.10;;;5.50;;
76989;SDS011;65924;47.250;11.332;2023-07-24T11:42:27;9.40;;;5.70;;
76989;SDS011;65924;47.250;11.332;2023-07-24T11:52:37;7.70;;;4.70;;
76989;SDS011;65924;47.250;11.332;2023-07-24T12:02:39;11.50;;;6.90;;
76989;SDS011;65924;47.250;11.332;2023-07-24T12:12:45;12.00;;;7.40;;
76989;SDS011;65924;47.250;11.332;2023-07-24T12:22:47;9.20;;;5.50;;
76989;SDS011;65924;47.250;11.332;2023-07-24T12:32:47;9.00;;;4.50;;
76989;SDS011;65924;47.250;11.332;2023-07-24T12:42:48;9.10;;;4.60;;
76989;SDS011;65924;47.250;11.332;2023-07-24T12:52:48;9.10;;;4.40;;
76989;SDS011;65924;47.250;11.332;2023-07-24T13:02:49;7.90;;;4.60;;
76989;SDS011;65924;47.250;11.332;2023-07-24T13:12:49;7.40;;;3.80;;
76989;SDS011;65924;47.250;11.332;2023-07-24T13:22:50;7.00;;;3.80;;
76989;SDS011;65924;47.250;11.332;2023-07-24T13:32:51;9.60;;;5.20;;
76989;SDS011;65924;47.250;11.332;2023-07-24T13:42:51;6.60;;;3.40;;
76989;SDS011;65924;47.250;11.332;2023-07-24T13:52:52;11.30;;;6.70;;
76989;SDS011;65924;47.250;11.332;2023-07-24T14:02:53;8.40;;;4.10;;
76989;SDS011;65924;47.250;11.332;2023-07-24T14:12:54;9.60;;;4.60;;
76989;SDS011;65924;47.250;11.332;2023-07-24T14:22:55;6.40;;;3.50;;
76989;SDS011;65924;47.250;11.332;2023-07-24T14:32:56;6.30;;;2.80;;
76989;SDS011;65924;47.250;11.332;2023-07-24T14:42:57;4.60;;;1.70;;
76989;SDS011;65924;47.250;11.332;2023-07-24T14:52:58;4.80;;;2.40;;
76989;SDS011;65924;47.250;11.332;2023-07-24T15:02:59;5.20;;;2.20;;
76989;SDS011;65924;47.250;11.332;2023-07-24T15:13:00;5.00;;;2.30;;
76989;SDS011;65924;47.250;11.332;2023-07-24T15:23:01;4.20;;;1.70;;
76989;SDS011;65924;47.250;11.332;2023-07-24T15:33:03;5.00;;;2.10;;
76989;SDS011;65924;47.250;11.332;2023-07-24T15:43:04;4.20;;;1.70;;
76989;SDS011;65924;47.250;11.332;2023-07-24T15:53:04;4.20;;;1.80;;
76989;SDS011;65924;47.250;11.332;2023-07-24T16:03:05;3.00;;;1.00;;
76989;SDS011;65924;47.250;11.332;2023-07-24T16:13:06;3.80;;;1.40;;
76989;SDS011;65924;47.250;11.332;2023-07-24T16:23:07;7.50;;;3.20;;
76989;SDS011;65924;47.250;11.332;2023-07-24T16:33:08;5.60;;;2.40;;
76989;SDS011;65924;47.250;11.332;2023-07-24T16:43:09;5.70;;;2.80;;
76989;SDS011;65924;47.250;11.332;2023-07-24T16:53:10;3.80;;;1.50;;
76989;SDS011;65924;47.250;11.332;2023-07-24T17:03:13;4.20;;;2.10;;
76989;SDS011;65924;47.250;11.332;2023-07-24T17:13:14;4.70;;;2.10;;
76989;SDS011;65924;47.250;11.332;2023-07-24T17:23:15;3.90;;;1.50;;
76989;SDS011;65924;47.250;11.332;2023-07-24T17:33:16;6.40;;;2.70;;
76989;SDS011;65924;47.250;11.332;2023-07-24T17:43:18;6.70;;;2.70;;
76989;SDS011;65924;47.250;11.332;2023-07-24T17:53:19;3.90;;;1.70;;
76989;SDS011;65924;47.250;11.332;2023-07-24T18:03:19;2.90;;;1.10;;
76989;SDS011;65924;47.250;11.332;2023-07-24T18:13:21;4.80;;;2.00;;
76989;SDS011;65924;47.250;11.332;2023-07-24T18:23:24;6.10;;;1.90;;
76989;SDS011;65924;47.250;11.332;2023-07-24T18:33:26;4.80;;;1.90;;
76989;SDS011;65924;47.250;11.332;2023-07-24T18:43:31;5.10;;;2.00;;
76989;SDS011;65924;47.250;11.332;2023-07-24T18:53:32;3.70;;;1.00;;
76989;SDS011;65924;47.250;11.332;2023-07-24T19:03:34;3.60;;;1.40;;
76989;SDS011;65924;47.250;11.332;2023-07-24T19:13:37;4.60;;;1.60;;
76989;SDS011;65924;47.250;11.332;2023-07-24T19:23:38;4.80;;;1.50;;
76989;SDS011;65924;47.250;11.332;2023-07-24T19:33:42;3.30;;;1.40;;
76989;SDS011;65924;47.250;11.332;2023-07-24T19:43:44;5.10;;;2.00;;
76989;SDS011;65924;47.250;11.332;2023-07-24T19:53:47;4.40;;;1.80;;
76989;SDS011;65924;47.250;11.332;2023-07-24T20:03:49;4.10;;;1.30;;
76989;SDS011;65924;47.250;11.332;2023-07-24T20:13:49;3.90;;;1.60;;
76989;SDS011;65924;47.250;11.332;2023-07-24T20:23:51;4.30;;;1.80;;
76989;SDS011;65924;47.250;11.332;2023-07-24T20:33:52;5.60;;;1.80;;
76989;SDS011;65924;47.250;11.332;2023-07-24T20:43:53;5.20;;;2.60;;
76989;SDS011;65924;47.250;11.332;2023-07-24T20:53:54;5.20;;;2.40;;
76989;SDS011;65924;47.250;11.332;2023-07-24T21:03:58;6.40;;;2.30;;
76989;SDS011;65924;47.250;11.332;2023-07-24T21:13:59;5.70;;;2.30;;
76989;SDS011;65924;47.250;11.332;2023-07-24T21:23:59;6.20;;;1.80;;
76989;SDS011;65924;47.250;11.332;2023-07-24T21:34:00;5.60;;;2.70;;
76989;SDS011;65924;47.250;11.332;2023-07-24T21:44:00;3.10;;;1.10;;
76989;SDS011;65924;47.250;11.332;2023-07-24T21:54:02;5.80;;;1.50;;
76989;SDS011;65924;47.250;11.332;2023-07-24T22:04:03;4.40;;;1.30;;
76989;SDS011;65924;47.250;11.332;2023-07-24T22:14:03;3.40;;;1.10;;
76989;SDS011;65924;47.250;11.332;2023-07-24T22:24:04;3.30;;;1.00;;
76989;SDS011;65924;47.250;11.332;2023-07-24T22:34:05;2.70;;;1.10;;
76989;SDS011;65924;47.250;11.332;2023-07-24T22:44:05;5.10;;;1.80;;
76989;SDS011;65924;47.250;11.332;2023-07-24T22:54:06;4.20;;;1.50;;
76989;SDS011;65924;47.250;11.332;2023-07-24T23:04:07;3.30;;;1.00;;
76989;SDS011;65924;47.250;11.332;2023-07-24T23:14:08;3.50;;;1.40;;
76989;SDS011;65924;47.250;11.332;2023-07-24T23:24:09;3.80;;;1.50;;
76989;SDS011;65924;47.250;11.332;2023-07-24T23:34:10;4.90;;;2.00;;
76989;SDS011;65924;47.250;11.332;2023-07-24T23:44:10;4.20;;;1.70;;
76989;SDS011;65924;47.250;11.332;2023-07-24T23:54:11;7.30;;;2.40;;
